sensor_id;sensor_type;location;lat;lon;timestamp;P1;durP1;ratioP1;P2;durP2;ratioP2
41627;SDS011;27321;50.816;6.054;2023-07-31T00:02:42;6.65;;;3.15;;
41627;SDS011;27321;50.816;6.054;2023-07-31T00:05:43;5.90;;;2.92;;
41627;SDS011;27321;50.816;6.054;2023-07-31T00:08:44;6.22;;;3.00;;
41627;SDS011;27321;50.816;6.054;2023-07-31T00:11:45;4.65;;;3.13;;
41627;SDS011;27321;50.816;6.054;2023-07-31T00:17:48;5.83;;;3.00;;
41627;SDS011;27321;50.816;6.054;2023-07-31T00:20:49;10.35;;;3.75;;
41627;SDS011;27321;50.816;6.054;2023-07-31T00:23:50;10.43;;;3.70;;
41627;SDS011;27321;50.816;6.054;2023-07-31T00:26:51;15.05;;;3.67;;
41627;SDS011;27321;50.816;6.054;2023-07-31T00:29:51;8.50;;;3.13;;
41627;SDS011;27321;50.816;6.054;2023-07-31T00:32:52;7.57;;;2.95;;
41627;SDS011;27321;50.816;6.054;2023-07-31T00:35:53;6.75;;;3.20;;
41627;SDS011;27321;50.816;6.054;2023-07-31T00:38:54;6.68;;;3.10;;
41627;SDS011;27321;50.816;6.054;2023-07-31T00:41:55;7.03;;;3.28;;
41627;SDS011;27321;50.816;6.054;2023-07-31T00:44:56;6.35;;;2.92;;
41627;SDS011;27321;50.816;6.054;2023-07-31T00:47:57;6.13;;;2.92;;
41627;SDS011;27321;50.816;6.054;2023-07-31T00:50:59;6.68;;;2.55;;
41627;SDS011;27321;50.816;6.054;2023-07-31T00:54:01;4.63;;;2.50;;
41627;SDS011;27321;50.816;6.054;2023-07-31T00:57:03;7.25;;;2.83;;
41627;SDS011;27321;50.816;6.054;2023-07-31T01:00:07;8.32;;;3.28;;
41627;SDS011;27321;50.816;6.054;2023-07-31T01:03:09;7.97;;;2.97;;
41627;SDS011;27321;50.816;6.054;2023-07-31T01:06:18;3.85;;;2.88;;
41627;SDS011;27321;50.816;6.054;2023-07-31T01:12:43;3.33;;;2.47;;
41627;SDS011;27321;50.816;6.054;2023-07-31T01:15:47;4.53;;;2.97;;
41627;SDS011;27321;50.816;6.054;2023-07-31T01:22:04;6.83;;;3.30;;
41627;SDS011;27321;50.816;6.054;2023-07-31T01:33:11;6.80;;;3.00;;
41627;SDS011;27321;50.816;6.054;2023-07-31T01:36:12;6.07;;;2.85;;
41627;SDS011;27321;50.816;6.054;2023-07-31T01:39:13;5.22;;;2.92;;
41627;SDS011;27321;50.816;6.054;2023-07-31T01:42:15;9.07;;;3.13;;
41627;SDS011;27321;50.816;6.054;2023-07-31T01:48:18;5.30;;;3.08;;
41627;SDS011;27321;50.816;6.054;2023-07-31T01:51:19;4.95;;;2.90;;
41627;SDS011;27321;50.816;6.054;2023-07-31T01:54:20;8.32;;;3.60;;
41627;SDS011;27321;50.816;6.054;2023-07-31T01:57:21;6.68;;;3.47;;
41627;SDS011;27321;50.816;6.054;2023-07-31T02:00:22;7.13;;;3.50;;
41627;SDS011;27321;50.816;6.054;2023-07-31T02:03:23;7.82;;;4.00;;
41627;SDS011;27321;50.816;6.054;2023-07-31T02:06:26;7.13;;;3.55;;
41627;SDS011;27321;50.816;6.054;2023-07-31T02:09:29;5.50;;;3.30;;
41627;SDS011;27321;50.816;6.054;2023-07-31T02:12:30;5.18;;;3.17;;
41627;SDS011;27321;50.816;6.054;2023-07-31T02:15:32;5.28;;;3.08;;
41627;SDS011;27321;50.816;6.054;2023-07-31T02:18:33;6.70;;;3.40;;
41627;SDS011;27321;50.816;6.054;2023-07-31T02:21:36;8.23;;;3.65;;
41627;SDS011;27321;50.816;6.054;2023-07-31T02:24:37;9.60;;;3.45;;
41627;SDS011;27321;50.816;6.054;2023-07-31T02:27:37;6.03;;;3.20;;
41627;SDS011;27321;50.816;6.054;2023-07-31T02:30:38;5.47;;;3.40;;
41627;SDS011;27321;50.816;6.054;2023-07-31T02:33:39;5.53;;;3.40;;
41627;SDS011;27321;50.816;6.054;2023-07-31T02:36:40;6.97;;;3.97;;
41627;SDS011;27321;50.816;6.054;2023-07-31T02:39:42;9.80;;;3.65;;
41627;SDS011;27321;50.816;6.054;2023-07-31T02:42:43;7.85;;;3.40;;
41627;SDS011;27321;50.816;6.054;2023-07-31T02:45:43;6.47;;;3.97;;
41627;SDS011;27321;50.816;6.054;2023-07-31T02:48:45;6.00;;;3.47;;
41627;SDS011;27321;50.816;6.054;2023-07-31T02:51:46;6.43;;;3.28;;
41627;SDS011;27321;50.816;6.054;2023-07-31T02:54:47;8.93;;;3.85;;
41627;SDS011;27321;50.816;6.054;2023-07-31T02:57:48;7.95;;;4.00;;
41627;SDS011;27321;50.816;6.054;2023-07-31T03:00:49;6.30;;;3.80;;
41627;SDS011;27321;50.816;6.054;2023-07-31T03:03:50;5.07;;;3.33;;
41627;SDS011;27321;50.816;6.054;2023-07-31T03:06:51;4.72;;;3.40;;
41627;SDS011;27321;50.816;6.054;2023-07-31T03:12:54;7.05;;;3.88;;
41627;SDS011;27321;50.816;6.054;2023-07-31T03:15:55;5.57;;;3.40;;
41627;SDS011;27321;50.816;6.054;2023-07-31T03:18:56;9.30;;;4.25;;
41627;SDS011;27321;50.816;6.054;2023-07-31T03:21:57;8.77;;;4.15;;
41627;SDS011;27321;50.816;6.054;2023-07-31T03:24:59;6.30;;;4.05;;
41627;SDS011;27321;50.816;6.054;2023-07-31T03:28:01;5.32;;;3.60;;
41627;SDS011;27321;50.816;6.054;2023-07-31T03:31:04;7.43;;;4.07;;
41627;SDS011;27321;50.816;6.054;2023-07-31T03:34:05;7.03;;;3.40;;
41627;SDS011;27321;50.816;6.054;2023-07-31T03:40:09;5.35;;;3.55;;
41627;SDS011;27321;50.816;6.054;2023-07-31T03:43:12;7.65;;;3.67;;
41627;SDS011;27321;50.816;6.054;2023-07-31T03:46:16;9.23;;;3.55;;
41627;SDS011;27321;50.816;6.054;2023-07-31T03:49:17;5.60;;;3.30;;
41627;SDS011;27321;50.816;6.054;2023-07-31T03:52:20;5.75;;;3.70;;
41627;SDS011;27321;50.816;6.054;2023-07-31T03:55:21;5.15;;;3.63;;
41627;SDS011;27321;50.816;6.054;2023-07-31T03:58:22;4.93;;;3.53;;
41627;SDS011;27321;50.816;6.054;2023-07-31T04:01:23;5.57;;;3.47;;
41627;SDS011;27321;50.816;6.054;2023-07-31T04:04:24;5.63;;;3.10;;
41627;SDS011;27321;50.816;6.054;2023-07-31T04:07:25;3.63;;;2.88;;
41627;SDS011;27321;50.816;6.054;2023-07-31T04:10:26;3.63;;;2.92;;
41627;SDS011;27321;50.816;6.054;2023-07-31T04:13:28;6.30;;;3.15;;
41627;SDS011;27321;50.816;6.054;2023-07-31T04:16:30;6.60;;;3.65;;
41627;SDS011;27321;50.816;6.054;2023-07-31T04:19:31;6.15;;;3.58;;
41627;SDS011;27321;50.816;6.054;2023-07-31T04:22:32;4.88;;;3.08;;
41627;SDS011;27321;50.816;6.054;2023-07-31T04:25:33;5.90;;;3.55;;
41627;SDS011;27321;50.816;6.054;2023-07-31T04:28:35;5.07;;;2.92;;
41627;SDS011;27321;50.816;6.054;2023-07-31T04:31:36;5.18;;;3.30;;
41627;SDS011;27321;50.816;6.054;2023-07-31T04:34:37;5.85;;;2.80;;
41627;SDS011;27321;50.816;6.054;2023-07-31T04:37:38;3.20;;;2.40;;
41627;SDS011;27321;50.816;6.054;2023-07-31T04:40:38;3.67;;;2.80;;
41627;SDS011;27321;50.816;6.054;2023-07-31T04:43:39;3.80;;;2.35;;
41627;SDS011;27321;50.816;6.054;2023-07-31T04:46:41;5.35;;;2.92;;
41627;SDS011;27321;50.816;6.054;2023-07-31T04:49:42;6.93;;;3.15;;
41627;SDS011;27321;50.816;6.054;2023-07-31T04:52:43;7.35;;;2.45;;
41627;SDS011;27321;50.816;6.054;2023-07-31T04:55:44;5.22;;;2.80;;
41627;SDS011;27321;50.816;6.054;2023-07-31T04:58:45;4.20;;;2.65;;
41627;SDS011;27321;50.816;6.054;2023-07-31T05:01:45;4.07;;;2.88;;
41627;SDS011;27321;50.816;6.054;2023-07-31T05:04:46;4.07;;;2.53;;
41627;SDS011;27321;50.816;6.054;2023-07-31T05:07:48;4.15;;;2.63;;
41627;SDS011;27321;50.816;6.054;2023-07-31T05:10:49;4.93;;;2.78;;
41627;SDS011;27321;50.816;6.054;2023-07-31T05:13:50;4.95;;;2.25;;
41627;SDS011;27321;50.816;6.054;2023-07-31T05:16:51;6.70;;;3.00;;
41627;SDS011;27321;50.816;6.054;2023-07-31T05:19:52;3.33;;;2.70;;
41627;SDS011;27321;50.816;6.054;2023-07-31T05:22:53;4.80;;;3.20;;
41627;SDS011;27321;50.816;6.054;2023-07-31T05:25:54;4.57;;;2.63;;
41627;SDS011;27321;50.816;6.054;2023-07-31T05:28:55;6.00;;;3.00;;
41627;SDS011;27321;50.816;6.054;2023-07-31T05:31:58;4.57;;;3.08;;
41627;SDS011;27321;50.816;6.054;2023-07-31T05:34:58;5.75;;;3.03;;
41627;SDS011;27321;50.816;6.054;2023-07-31T05:38:00;4.32;;;2.92;;
41627;SDS011;27321;50.816;6.054;2023-07-31T05:41:00;3.75;;;2.50;;
41627;SDS011;27321;50.816;6.054;2023-07-31T05:44:02;4.70;;;2.70;;
41627;SDS011;27321;50.816;6.054;2023-07-31T05:47:03;6.35;;;3.10;;
41627;SDS011;27321;50.816;6.054;2023-07-31T05:50:05;6.47;;;3.20;;
41627;SDS011;27321;50.816;6.054;2023-07-31T05:53:06;5.22;;;2.97;;
41627;SDS011;27321;50.816;6.054;2023-07-31T05:56:08;4.95;;;2.65;;
41627;SDS011;27321;50.816;6.054;2023-07-31T05:59:09;5.03;;;2.97;;
41627;SDS011;27321;50.816;6.054;2023-07-31T06:02:12;7.18;;;3.20;;
41627;SDS011;27321;50.816;6.054;2023-07-31T06:05:13;3.10;;;2.80;;
41627;SDS011;27321;50.816;6.054;2023-07-31T06:08:14;5.97;;;2.92;;
41627;SDS011;27321;50.816;6.054;2023-07-31T06:11:15;3.58;;;2.75;;
41627;SDS011;27321;50.816;6.054;2023-07-31T06:14:16;5.95;;;3.05;;
41627;SDS011;27321;50.816;6.054;2023-07-31T06:17:17;3.65;;;2.50;;
41627;SDS011;27321;50.816;6.054;2023-07-31T06:20:18;9.02;;;3.53;;
41627;SDS011;27321;50.816;6.054;2023-07-31T06:23:19;4.97;;;2.67;;
41627;SDS011;27321;50.816;6.054;2023-07-31T06:26:20;6.05;;;2.67;;
41627;SDS011;27321;50.816;6.054;2023-07-31T06:29:21;5.10;;;2.78;;
41627;SDS011;27321;50.816;6.054;2023-07-31T06:32:22;4.90;;;2.88;;
41627;SDS011;27321;50.816;6.054;2023-07-31T06:35:23;4.72;;;2.97;;
41627;SDS011;27321;50.816;6.054;2023-07-31T06:38:25;5.65;;;3.15;;
41627;SDS011;27321;50.816;6.054;2023-07-31T06:41:27;2.58;;;2.10;;
41627;SDS011;27321;50.816;6.054;2023-07-31T06:44:28;5.55;;;2.95;;
41627;SDS011;27321;50.816;6.054;2023-07-31T06:47:29;6.03;;;2.55;;
41627;SDS011;27321;50.816;6.054;2023-07-31T06:50:33;5.32;;;3.15;;
41627;SDS011;27321;50.816;6.054;2023-07-31T06:53:34;4.82;;;2.80;;
41627;SDS011;27321;50.816;6.054;2023-07-31T06:56:35;7.05;;;2.88;;
41627;SDS011;27321;50.816;6.054;2023-07-31T06:59:36;5.35;;;2.53;;
41627;SDS011;27321;50.816;6.054;2023-07-31T07:02:37;3.08;;;2.40;;
41627;SDS011;27321;50.816;6.054;2023-07-31T07:05:38;3.58;;;2.28;;
41627;SDS011;27321;50.816;6.054;2023-07-31T07:08:39;6.13;;;2.88;;
41627;SDS011;27321;50.816;6.054;2023-07-31T07:11:40;3.83;;;2.38;;
41627;SDS011;27321;50.816;6.054;2023-07-31T07:14:41;5.20;;;2.50;;
41627;SDS011;27321;50.816;6.054;2023-07-31T07:17:42;3.75;;;2.90;;
41627;SDS011;27321;50.816;6.054;2023-07-31T07:20:50;3.60;;;2.38;;
41627;SDS011;27321;50.816;6.054;2023-07-31T07:23:52;5.00;;;2.42;;
41627;SDS011;27321;50.816;6.054;2023-07-31T07:26:53;3.20;;;2.60;;
41627;SDS011;27321;50.816;6.054;2023-07-31T07:29:54;6.50;;;3.25;;
41627;SDS011;27321;50.816;6.054;2023-07-31T07:32:56;3.92;;;2.58;;
41627;SDS011;27321;50.816;6.054;2023-07-31T07:35:59;6.13;;;3.10;;
41627;SDS011;27321;50.816;6.054;2023-07-31T07:39:02;3.80;;;2.38;;
41627;SDS011;27321;50.816;6.054;2023-07-31T07:42:03;3.95;;;2.60;;
41627;SDS011;27321;50.816;6.054;2023-07-31T07:45:04;5.45;;;2.78;;
41627;SDS011;27321;50.816;6.054;2023-07-31T07:48:06;7.30;;;3.17;;
41627;SDS011;27321;50.816;6.054;2023-07-31T07:51:07;4.43;;;2.70;;
41627;SDS011;27321;50.816;6.054;2023-07-31T07:54:08;5.95;;;2.70;;
41627;SDS011;27321;50.816;6.054;2023-07-31T07:57:09;5.03;;;2.78;;
41627;SDS011;27321;50.816;6.054;2023-07-31T08:00:11;3.88;;;2.38;;
41627;SDS011;27321;50.816;6.054;2023-07-31T08:03:16;4.97;;;2.42;;
41627;SDS011;27321;50.816;6.054;2023-07-31T08:06:17;5.18;;;2.67;;
41627;SDS011;27321;50.816;6.054;2023-07-31T08:09:19;3.67;;;2.00;;
41627;SDS011;27321;50.816;6.054;2023-07-31T08:12:20;5.25;;;2.25;;
41627;SDS011;27321;50.816;6.054;2023-07-31T08:15:23;4.18;;;2.35;;
41627;SDS011;27321;50.816;6.054;2023-07-31T08:18:24;4.57;;;2.42;;
41627;SDS011;27321;50.816;6.054;2023-07-31T08:21:25;3.92;;;2.63;;
41627;SDS011;27321;50.816;6.054;2023-07-31T08:24:26;3.10;;;2.55;;
41627;SDS011;27321;50.816;6.054;2023-07-31T08:27:27;4.43;;;2.35;;
41627;SDS011;27321;50.816;6.054;2023-07-31T08:30:28;3.75;;;2.35;;
41627;SDS011;27321;50.816;6.054;2023-07-31T08:33:30;3.35;;;2.33;;
41627;SDS011;27321;50.816;6.054;2023-07-31T08:39:32;5.40;;;2.80;;
41627;SDS011;27321;50.816;6.054;2023-07-31T08:42:33;4.90;;;2.70;;
41627;SDS011;27321;50.816;6.054;2023-07-31T08:45:34;5.15;;;2.60;;
41627;SDS011;27321;50.816;6.054;2023-07-31T08:48:35;6.18;;;3.03;;
41627;SDS011;27321;50.816;6.054;2023-07-31T08:51:38;4.68;;;3.03;;
41627;SDS011;27321;50.816;6.054;2023-07-31T08:54:42;5.20;;;2.78;;
41627;SDS011;27321;50.816;6.054;2023-07-31T08:57:44;4.30;;;2.78;;
41627;SDS011;27321;50.816;6.054;2023-07-31T09:00:46;5.00;;;2.90;;
41627;SDS011;27321;50.816;6.054;2023-07-31T09:03:48;4.18;;;2.10;;
41627;SDS011;27321;50.816;6.054;2023-07-31T09:06:52;6.80;;;2.63;;
41627;SDS011;27321;50.816;6.054;2023-07-31T09:09:59;6.25;;;2.55;;
41627;SDS011;27321;50.816;6.054;2023-07-31T09:13:00;3.67;;;2.08;;
41627;SDS011;27321;50.816;6.054;2023-07-31T09:16:03;4.15;;;2.38;;
41627;SDS011;27321;50.816;6.054;2023-07-31T09:19:04;5.75;;;2.40;;
41627;SDS011;27321;50.816;6.054;2023-07-31T09:22:06;4.15;;;2.28;;
41627;SDS011;27321;50.816;6.054;2023-07-31T09:28:21;5.28;;;2.85;;
41627;SDS011;27321;50.816;6.054;2023-07-31T09:31:41;5.15;;;3.17;;
41627;SDS011;27321;50.816;6.054;2023-07-31T09:34:43;4.45;;;2.63;;
41627;SDS011;27321;50.816;6.054;2023-07-31T09:37:47;4.32;;;2.78;;
41627;SDS011;27321;50.816;6.054;2023-07-31T09:41:07;7.45;;;2.88;;
41627;SDS011;27321;50.816;6.054;2023-07-31T09:44:08;4.43;;;2.80;;
41627;SDS011;27321;50.816;6.054;2023-07-31T09:47:22;4.70;;;2.60;;
41627;SDS011;27321;50.816;6.054;2023-07-31T09:50:24;4.28;;;2.40;;
41627;SDS011;27321;50.816;6.054;2023-07-31T09:53:28;3.47;;;2.40;;
41627;SDS011;27321;50.816;6.054;2023-07-31T09:56:32;4.20;;;2.10;;
41627;SDS011;27321;50.816;6.054;2023-07-31T09:59:34;4.90;;;2.58;;
41627;SDS011;27321;50.816;6.054;2023-07-31T10:02:36;6.25;;;2.17;;
41627;SDS011;27321;50.816;6.054;2023-07-31T10:08:51;2.47;;;2.00;;
41627;SDS011;27321;50.816;6.054;2023-07-31T10:11:55;2.90;;;2.00;;
41627;SDS011;27321;50.816;6.054;2023-07-31T10:15:00;2.58;;;2.13;;
41627;SDS011;27321;50.816;6.054;2023-07-31T10:18:02;2.17;;;1.63;;
41627;SDS011;27321;50.816;6.054;2023-07-31T10:21:07;2.03;;;1.83;;
41627;SDS011;27321;50.816;6.054;2023-07-31T10:24:08;2.58;;;2.00;;
41627;SDS011;27321;50.816;6.054;2023-07-31T10:30:20;2.30;;;1.63;;
41627;SDS011;27321;50.816;6.054;2023-07-31T10:33:28;2.20;;;1.35;;
41627;SDS011;27321;50.816;6.054;2023-07-31T10:36:29;1.58;;;1.00;;
41627;SDS011;27321;50.816;6.054;2023-07-31T10:39:34;2.30;;;1.60;;
41627;SDS011;27321;50.816;6.054;2023-07-31T10:42:50;1.17;;;1.08;;
41627;SDS011;27321;50.816;6.054;2023-07-31T10:45:57;2.88;;;1.67;;
41627;SDS011;27321;50.816;6.054;2023-07-31T10:49:00;1.55;;;1.13;;
41627;SDS011;27321;50.816;6.054;2023-07-31T10:52:03;1.85;;;1.15;;
41627;SDS011;27321;50.816;6.054;2023-07-31T10:55:14;1.48;;;1.10;;
41627;SDS011;27321;50.816;6.054;2023-07-31T10:58:16;3.08;;;1.30;;
41627;SDS011;27321;50.816;6.054;2023-07-31T11:01:21;0.90;;;0.90;;
41627;SDS011;27321;50.816;6.054;2023-07-31T11:04:26;2.83;;;1.20;;
41627;SDS011;27321;50.816;6.054;2023-07-31T11:07:42;3.03;;;1.50;;
41627;SDS011;27321;50.816;6.054;2023-07-31T11:10:49;1.35;;;1.20;;
41627;SDS011;27321;50.816;6.054;2023-07-31T11:14:06;1.50;;;1.40;;
41627;SDS011;27321;50.816;6.054;2023-07-31T11:17:11;1.58;;;1.30;;
41627;SDS011;27321;50.816;6.054;2023-07-31T11:20:12;1.65;;;1.10;;
41627;SDS011;27321;50.816;6.054;2023-07-31T11:23:16;1.35;;;1.25;;
41627;SDS011;27321;50.816;6.054;2023-07-31T11:26:18;2.55;;;1.73;;
41627;SDS011;27321;50.816;6.054;2023-07-31T11:29:19;2.40;;;1.70;;
41627;SDS011;27321;50.816;6.054;2023-07-31T11:32:21;2.72;;;1.80;;
41627;SDS011;27321;50.816;6.054;2023-07-31T11:35:23;3.38;;;2.20;;
41627;SDS011;27321;50.816;6.054;2023-07-31T11:38:28;2.35;;;1.80;;
41627;SDS011;27321;50.816;6.054;2023-07-31T11:41:34;3.92;;;2.17;;
41627;SDS011;27321;50.816;6.054;2023-07-31T11:44:39;3.30;;;1.88;;
41627;SDS011;27321;50.816;6.054;2023-07-31T11:47:41;2.47;;;2.03;;
41627;SDS011;27321;50.816;6.054;2023-07-31T11:50:42;4.22;;;1.80;;
41627;SDS011;27321;50.816;6.054;2023-07-31T11:53:51;2.08;;;1.88;;
41627;SDS011;27321;50.816;6.054;2023-07-31T11:56:56;3.10;;;2.30;;
41627;SDS011;27321;50.816;6.054;2023-07-31T11:59:58;2.25;;;2.05;;
41627;SDS011;27321;50.816;6.054;2023-07-31T12:02:59;3.17;;;1.70;;
41627;SDS011;27321;50.816;6.054;2023-07-31T12:09:03;2.60;;;2.20;;
41627;SDS011;27321;50.816;6.054;2023-07-31T12:12:08;2.97;;;2.17;;
41627;SDS011;27321;50.816;6.054;2023-07-31T12:15:14;3.20;;;2.50;;
41627;SDS011;27321;50.816;6.054;2023-07-31T12:18:19;2.28;;;2.00;;
41627;SDS011;27321;50.816;6.054;2023-07-31T12:21:23;3.67;;;2.50;;
41627;SDS011;27321;50.816;6.054;2023-07-31T12:24:28;4.07;;;2.00;;
41627;SDS011;27321;50.816;6.054;2023-07-31T12:27:34;4.72;;;2.67;;
41627;SDS011;27321;50.816;6.054;2023-07-31T12:30:35;3.42;;;2.20;;
41627;SDS011;27321;50.816;6.054;2023-07-31T12:33:37;4.05;;;2.53;;
41627;SDS011;27321;50.816;6.054;2023-07-31T12:36:40;4.63;;;2.50;;
41627;SDS011;27321;50.816;6.054;2023-07-31T12:39:42;3.83;;;2.67;;
41627;SDS011;27321;50.816;6.054;2023-07-31T12:42:43;3.72;;;2.63;;
41627;SDS011;27321;50.816;6.054;2023-07-31T12:45:44;4.72;;;2.35;;
41627;SDS011;27321;50.816;6.054;2023-07-31T12:48:47;2.75;;;2.08;;
41627;SDS011;27321;50.816;6.054;2023-07-31T12:51:48;2.63;;;1.98;;
41627;SDS011;27321;50.816;6.054;2023-07-31T12:54:49;3.30;;;2.22;;
41627;SDS011;27321;50.816;6.054;2023-07-31T12:57:50;5.03;;;2.65;;
41627;SDS011;27321;50.816;6.054;2023-07-31T13:00:51;3.67;;;2.33;;
41627;SDS011;27321;50.816;6.054;2023-07-31T13:03:52;3.60;;;2.35;;
41627;SDS011;27321;50.816;6.054;2023-07-31T13:06:53;3.85;;;2.38;;
41627;SDS011;27321;50.816;6.054;2023-07-31T13:09:55;3.83;;;2.30;;
41627;SDS011;27321;50.816;6.054;2023-07-31T13:12:56;4.43;;;2.47;;
41627;SDS011;27321;50.816;6.054;2023-07-31T13:15:57;3.03;;;2.30;;
41627;SDS011;27321;50.816;6.054;2023-07-31T13:18:58;3.03;;;2.53;;
41627;SDS011;27321;50.816;6.054;2023-07-31T13:21:59;3.55;;;1.90;;
41627;SDS011;27321;50.816;6.054;2023-07-31T13:25:00;3.65;;;2.10;;
41627;SDS011;27321;50.816;6.054;2023-07-31T13:28:01;2.40;;;2.20;;
41627;SDS011;27321;50.816;6.054;2023-07-31T13:31:02;4.68;;;2.60;;
41627;SDS011;27321;50.816;6.054;2023-07-31T13:34:03;4.85;;;2.20;;
41627;SDS011;27321;50.816;6.054;2023-07-31T13:37:04;5.38;;;2.88;;
41627;SDS011;27321;50.816;6.054;2023-07-31T13:40:08;3.08;;;2.60;;
41627;SDS011;27321;50.816;6.054;2023-07-31T13:43:10;4.35;;;2.75;;
41627;SDS011;27321;50.816;6.054;2023-07-31T13:46:10;3.08;;;2.55;;
41627;SDS011;27321;50.816;6.054;2023-07-31T13:49:11;4.63;;;3.17;;
41627;SDS011;27321;50.816;6.054;2023-07-31T13:52:12;5.10;;;3.42;;
41627;SDS011;27321;50.816;6.054;2023-07-31T13:55:14;5.18;;;3.45;;
41627;SDS011;27321;50.816;6.054;2023-07-31T13:58:15;3.53;;;2.95;;
41627;SDS011;27321;50.816;6.054;2023-07-31T14:01:17;4.97;;;3.08;;
41627;SDS011;27321;50.816;6.054;2023-07-31T14:04:18;4.35;;;3.22;;
41627;SDS011;27321;50.816;6.054;2023-07-31T14:07:19;4.35;;;2.67;;
41627;SDS011;27321;50.816;6.054;2023-07-31T14:10:20;4.60;;;3.25;;
41627;SDS011;27321;50.816;6.054;2023-07-31T14:13:21;3.80;;;2.50;;
41627;SDS011;27321;50.816;6.054;2023-07-31T14:16:22;3.72;;;2.63;;
41627;SDS011;27321;50.816;6.054;2023-07-31T14:19:23;4.88;;;3.58;;
41627;SDS011;27321;50.816;6.054;2023-07-31T14:22:29;5.43;;;3.25;;
41627;SDS011;27321;50.816;6.054;2023-07-31T14:25:30;4.07;;;3.10;;
41627;SDS011;27321;50.816;6.054;2023-07-31T14:31:32;9.02;;;3.47;;
41627;SDS011;27321;50.816;6.054;2023-07-31T14:34:33;4.93;;;3.05;;
41627;SDS011;27321;50.816;6.054;2023-07-31T14:37:38;4.43;;;3.15;;
41627;SDS011;27321;50.816;6.054;2023-07-31T14:40:41;4.47;;;3.42;;
41627;SDS011;27321;50.816;6.054;2023-07-31T14:43:42;3.83;;;3.28;;
41627;SDS011;27321;50.816;6.054;2023-07-31T14:46:43;5.53;;;3.83;;
41627;SDS011;27321;50.816;6.054;2023-07-31T14:49:44;5.70;;;3.42;;
41627;SDS011;27321;50.816;6.054;2023-07-31T14:52:45;4.85;;;3.47;;
41627;SDS011;27321;50.816;6.054;2023-07-31T14:55:46;5.25;;;3.92;;
41627;SDS011;27321;50.816;6.054;2023-07-31T14:58:47;4.28;;;3.50;;
41627;SDS011;27321;50.816;6.054;2023-07-31T15:01:48;5.43;;;3.58;;
41627;SDS011;27321;50.816;6.054;2023-07-31T15:04:49;6.38;;;3.78;;
41627;SDS011;27321;50.816;6.054;2023-07-31T15:07:50;5.47;;;4.00;;
41627;SDS011;27321;50.816;6.054;2023-07-31T15:10:51;5.60;;;3.35;;
41627;SDS011;27321;50.816;6.054;2023-07-31T15:13:57;5.40;;;3.22;;
41627;SDS011;27321;50.816;6.054;2023-07-31T15:16:58;7.05;;;3.00;;
41627;SDS011;27321;50.816;6.054;2023-07-31T15:19:59;3.10;;;2.80;;
41627;SDS011;27321;50.816;6.054;2023-07-31T15:23:00;3.45;;;2.83;;
41627;SDS011;27321;50.816;6.054;2023-07-31T15:26:01;4.60;;;2.92;;
41627;SDS011;27321;50.816;6.054;2023-07-31T15:29:06;4.00;;;2.67;;
41627;SDS011;27321;50.816;6.054;2023-07-31T15:32:11;4.40;;;2.63;;
41627;SDS011;27321;50.816;6.054;2023-07-31T15:35:12;3.00;;;2.28;;
41627;SDS011;27321;50.816;6.054;2023-07-31T15:38:13;5.28;;;2.75;;
41627;SDS011;27321;50.816;6.054;2023-07-31T15:41:14;3.22;;;2.00;;
41627;SDS011;27321;50.816;6.054;2023-07-31T15:44:15;2.20;;;2.00;;
41627;SDS011;27321;50.816;6.054;2023-07-31T15:47:16;2.60;;;1.98;;
41627;SDS011;27321;50.816;6.054;2023-07-31T15:50:17;2.72;;;2.53;;
41627;SDS011;27321;50.816;6.054;2023-07-31T15:53:18;2.80;;;1.98;;
41627;SDS011;27321;50.816;6.054;2023-07-31T15:56:19;2.20;;;2.00;;
41627;SDS011;27321;50.816;6.054;2023-07-31T15:59:20;2.85;;;2.17;;
41627;SDS011;27321;50.816;6.054;2023-07-31T16:02:21;1.92;;;1.73;;
41627;SDS011;27321;50.816;6.054;2023-07-31T16:05:22;4.50;;;2.30;;
41627;SDS011;27321;50.816;6.054;2023-07-31T16:08:23;2.53;;;2.30;;
41627;SDS011;27321;50.816;6.054;2023-07-31T16:11:24;2.95;;;2.22;;
41627;SDS011;27321;50.816;6.054;2023-07-31T16:14:25;3.58;;;2.60;;
41627;SDS011;27321;50.816;6.054;2023-07-31T16:17:26;2.42;;;2.05;;
41627;SDS011;27321;50.816;6.054;2023-07-31T16:20:27;2.42;;;2.00;;
41627;SDS011;27321;50.816;6.054;2023-07-31T16:23:28;2.17;;;1.98;;
41627;SDS011;27321;50.816;6.054;2023-07-31T16:26:29;2.90;;;2.13;;
41627;SDS011;27321;50.816;6.054;2023-07-31T16:29:30;3.20;;;2.30;;
41627;SDS011;27321;50.816;6.054;2023-07-31T16:32:31;2.47;;;2.28;;
41627;SDS011;27321;50.816;6.054;2023-07-31T16:35:32;2.75;;;2.22;;
41627;SDS011;27321;50.816;6.054;2023-07-31T16:38:33;3.65;;;2.70;;
41627;SDS011;27321;50.816;6.054;2023-07-31T16:41:34;1.83;;;1.63;;
41627;SDS011;27321;50.816;6.054;2023-07-31T16:44:35;2.17;;;1.98;;
41627;SDS011;27321;50.816;6.054;2023-07-31T16:47:36;2.05;;;1.85;;
41627;SDS011;27321;50.816;6.054;2023-07-31T16:50:37;2.22;;;1.63;;
41627;SDS011;27321;50.816;6.054;2023-07-31T16:53:38;2.30;;;1.80;;
41627;SDS011;27321;50.816;6.054;2023-07-31T16:56:39;1.70;;;1.48;;
41627;SDS011;27321;50.816;6.054;2023-07-31T16:59:41;3.60;;;1.67;;
41627;SDS011;27321;50.816;6.054;2023-07-31T17:02:42;2.30;;;1.77;;
41627;SDS011;27321;50.816;6.054;2023-07-31T17:05:43;1.45;;;1.25;;
41627;SDS011;27321;50.816;6.054;2023-07-31T17:08:44;1.90;;;1.42;;
41627;SDS011;27321;50.816;6.054;2023-07-31T17:11:45;1.35;;;1.10;;
41627;SDS011;27321;50.816;6.054;2023-07-31T17:14:45;1.67;;;1.27;;
41627;SDS011;27321;50.816;6.054;2023-07-31T17:17:49;1.77;;;1.27;;
41627;SDS011;27321;50.816;6.054;2023-07-31T17:20:54;2.28;;;0.95;;
41627;SDS011;27321;50.816;6.054;2023-07-31T17:23:58;2.25;;;1.10;;
41627;SDS011;27321;50.816;6.054;2023-07-31T17:26:59;1.90;;;0.93;;
41627;SDS011;27321;50.816;6.054;2023-07-31T17:30:00;1.27;;;0.70;;
41627;SDS011;27321;50.816;6.054;2023-07-31T17:33:01;0.90;;;0.90;;
41627;SDS011;27321;50.816;6.054;2023-07-31T17:36:02;1.48;;;0.98;;
41627;SDS011;27321;50.816;6.054;2023-07-31T17:39:04;2.10;;;0.85;;
41627;SDS011;27321;50.816;6.054;2023-07-31T17:42:05;1.08;;;0.80;;
41627;SDS011;27321;50.816;6.054;2023-07-31T17:45:06;1.02;;;0.73;;
41627;SDS011;27321;50.816;6.054;2023-07-31T17:48:08;0.75;;;0.75;;
41627;SDS011;27321;50.816;6.054;2023-07-31T17:51:09;0.82;;;0.82;;
41627;SDS011;27321;50.816;6.054;2023-07-31T17:54:10;1.00;;;0.55;;
41627;SDS011;27321;50.816;6.054;2023-07-31T17:57:11;2.15;;;0.60;;
41627;SDS011;27321;50.816;6.054;2023-07-31T18:00:12;1.10;;;1.00;;
41627;SDS011;27321;50.816;6.054;2023-07-31T18:03:13;0.85;;;0.65;;
41627;SDS011;27321;50.816;6.054;2023-07-31T18:06:14;0.88;;;0.77;;
41627;SDS011;27321;50.816;6.054;2023-07-31T18:09:15;2.65;;;0.88;;
41627;SDS011;27321;50.816;6.054;2023-07-31T18:12:16;2.17;;;0.90;;
41627;SDS011;27321;50.816;6.054;2023-07-31T18:15:17;1.38;;;0.75;;
41627;SDS011;27321;50.816;6.054;2023-07-31T18:18:18;1.42;;;1.00;;
41627;SDS011;27321;50.816;6.054;2023-07-31T18:21:19;1.15;;;1.05;;
41627;SDS011;27321;50.816;6.054;2023-07-31T18:24:20;1.55;;;1.08;;
41627;SDS011;27321;50.816;6.054;2023-07-31T18:27:21;1.33;;;0.98;;
41627;SDS011;27321;50.816;6.054;2023-07-31T18:30:22;1.02;;;0.80;;
41627;SDS011;27321;50.816;6.054;2023-07-31T18:33:23;0.90;;;0.70;;
41627;SDS011;27321;50.816;6.054;2023-07-31T18:36:24;0.60;;;0.60;;
41627;SDS011;27321;50.816;6.054;2023-07-31T18:39:25;1.05;;;0.73;;
41627;SDS011;27321;50.816;6.054;2023-07-31T18:42:26;0.75;;;0.57;;
41627;SDS011;27321;50.816;6.054;2023-07-31T18:45:27;2.42;;;0.80;;
41627;SDS011;27321;50.816;6.054;2023-07-31T18:48:28;2.10;;;0.70;;
41627;SDS011;27321;50.816;6.054;2023-07-31T18:51:30;1.75;;;0.68;;
41627;SDS011;27321;50.816;6.054;2023-07-31T18:54:35;2.58;;;0.70;;
41627;SDS011;27321;50.816;6.054;2023-07-31T18:57:36;0.55;;;0.40;;
41627;SDS011;27321;50.816;6.054;2023-07-31T19:00:38;0.80;;;0.80;;
41627;SDS011;27321;50.816;6.054;2023-07-31T19:03:39;0.63;;;0.50;;